createdAt,value
2022-09-27T00:00:28.134Z,37.67
2022-09-27T00:05:30.943Z,43.95
2022-09-27T00:10:33.385Z,38.95
2022-09-27T00:15:35.739Z,38.60
2022-09-27T00:20:38.309Z,47.42
2022-09-27T00:25:40.763Z,42.15
2022-09-27T00:30:43.391Z,44.80
2022-09-27T00:35:45.910Z,39.33
2022-09-27T00:40:48.641Z,42.05
2022-09-27T00:45:54.011Z,47.80
2022-09-27T00:50:59.753Z,46.20
2022-09-27T00:56:05.470Z,42.78
2022-09-27T01:01:13.872Z,44.65
2022-09-27T01:06:17.998Z,59.42
2022-09-27T01:11:29.055Z,54.80
2022-09-27T01:17:16.985Z,57.25
2022-09-27T01:22:29.719Z,54.33
2022-09-27T01:27:58.701Z,55.67
2022-09-27T01:33:07.057Z,50.47
2022-09-27T01:38:23.747Z,49.38
2022-09-27T01:44:01.619Z,55.90
2022-09-27T01:49:18.429Z,112.35
2022-09-27T01:54:26.218Z,107.80
2022-09-27T02:00:05.309Z,95.82
2022-09-27T02:05:18.139Z,72.75
2022-09-27T02:10:27.947Z,59.30
2022-09-27T02:15:38.127Z,123.45
2022-09-27T02:21:02.008Z,100.80
2022-09-27T02:26:19.613Z,326.65
2022-09-27T02:31:23.900Z,186.80
2022-09-27T02:36:26.817Z,199.02
2022-09-27T02:41:29.275Z,187.63
2022-09-27T02:46:53.248Z,146.90
2022-09-27T02:52:01.857Z,154.35
2022-09-27T02:57:10.009Z,189.98
2022-09-27T03:02:57.126Z,105.85
2022-09-27T03:08:29.396Z,99.40
2022-09-27T03:13:32.562Z,151.80
2022-09-27T03:18:35.753Z,194.45
2022-09-27T03:24:02.060Z,174.52
2022-09-27T03:29:05.506Z,407.25
2022-09-27T03:34:08.190Z,259.35
2022-09-27T03:39:10.742Z,234.50
2022-09-27T03:44:13.182Z,112.35
2022-09-27T03:49:15.662Z,326.23
2022-09-27T03:54:18.111Z,144.93
2022-09-27T03:59:20.481Z,375.80
2022-09-27T04:04:41.260Z,120.43
2022-09-27T04:09:44.953Z,173.23
2022-09-27T04:14:47.696Z,93.97
2022-09-27T04:20:09.273Z,148.50
2022-09-27T04:25:13.886Z,142.25
2022-09-27T04:30:16.923Z,80.85
2022-09-27T04:36:02.448Z,85.05
2022-09-27T04:41:05.469Z,110.07
2022-09-27T04:46:09.940Z,123.18
2022-09-27T04:51:12.371Z,79.18
2022-09-27T04:56:16.223Z,92.38
2022-09-27T05:01:19.507Z,102.43
2022-09-27T05:06:40.493Z,90.30
2022-09-27T05:11:53.256Z,89.85
2022-09-27T05:17:15.265Z,87.55
2022-09-27T05:22:36.311Z,90.45
2022-09-27T05:27:39.096Z,67.13
2022-09-27T05:32:44.227Z,77.40
2022-09-27T05:38:01.790Z,60.67
2022-09-27T05:43:07.251Z,74.40
2022-09-27T05:48:09.999Z,107.72
2022-09-27T05:53:19.452Z,72.65
2022-09-27T05:58:22.958Z,64.65
2022-09-27T06:03:34.203Z,63.22
2022-09-27T06:08:52.090Z,50.92
2022-09-27T06:13:55.554Z,47.80
2022-09-27T06:18:59.935Z,63.03
2022-09-27T06:24:02.771Z,75.00
2022-09-27T06:29:09.396Z,45.47
2022-09-27T06:34:14.618Z,92.43
2022-09-27T06:39:17.511Z,62.83
2022-09-27T06:44:40.127Z,90.85
2022-09-27T06:50:03.808Z,62.40
2022-09-27T06:55:07.144Z,83.07
2022-09-27T07:00:24.170Z,68.72
2022-09-27T07:05:56.097Z,69.93
2022-09-27T07:11:22.116Z,47.50
2022-09-27T07:16:24.800Z,39.97
2022-09-27T07:21:27.652Z,48.10
2022-09-27T07:26:30.424Z,44.97
2022-09-27T07:31:34.016Z,49.50
2022-09-27T07:36:36.634Z,47.95
2022-09-27T07:41:40.513Z,46.22
2022-09-27T07:46:42.981Z,34.42
2022-09-27T07:51:54.552Z,32.10
2022-09-27T07:57:23.850Z,34.63
2022-09-27T08:02:28.779Z,38.17
2022-09-27T08:07:33.042Z,35.30
2022-09-27T08:12:36.974Z,32.15
2022-09-27T08:17:39.637Z,26.73
2022-09-27T08:23:11.737Z,27.92
2022-09-27T08:28:18.147Z,27.70
2022-09-27T08:33:32.921Z,24.70
2022-09-27T08:38:37.103Z,29.90
2022-09-27T08:43:50.777Z,29.30
2022-09-27T08:49:07.169Z,23.50
2022-09-27T08:54:19.141Z,31.98
2022-09-27T08:59:26.594Z,34.97
2022-09-27T09:04:35.319Z,37.07
2022-09-27T09:10:02.689Z,33.08
2022-09-27T09:16:10.384Z,30.33
2022-09-27T09:21:41.493Z,21.95
2022-09-27T09:27:09.306Z,28.45
2022-09-27T09:32:26.984Z,26.63
2022-09-27T09:38:12.972Z,28.10
2022-09-27T09:43:29.168Z,26.77
2022-09-27T09:48:39.704Z,28.80
2022-09-27T09:53:50.972Z,31.45
2022-09-27T09:59:03.923Z,24.38
2022-09-27T10:04:20.604Z,36.05
2022-09-27T10:09:25.787Z,46.50
2022-09-27T10:15:01.947Z,31.83
2022-09-27T10:20:07.182Z,31.00
2022-09-27T10:25:10.937Z,34.00
2022-09-27T10:30:24.293Z,28.90
2022-09-27T10:35:29.572Z,30.57
2022-09-27T10:40:35.441Z,24.92
2022-09-27T10:45:42.556Z,29.27
2022-09-27T10:50:59.608Z,28.52
2022-09-27T10:56:30.068Z,30.02
2022-09-27T11:01:45.636Z,27.55
2022-09-27T11:07:15.248Z,25.40
2022-09-27T11:12:23.123Z,37.03
2022-09-27T11:17:57.244Z,27.90
2022-09-27T11:23:16.000Z,27.55
2022-09-27T11:28:43.298Z,31.13
2022-09-27T11:34:01.320Z,27.52
2022-09-27T11:39:08.687Z,35.22
2022-09-27T11:44:31.760Z,31.73
2022-09-27T11:49:56.527Z,44.33
2022-09-27T11:55:10.926Z,28.45
2022-09-27T12:00:21.832Z,29.83
2022-09-27T12:05:57.408Z,27.05
2022-09-27T12:11:30.499Z,27.98
2022-09-27T12:16:33.643Z,26.95
2022-09-27T12:21:36.527Z,28.20
2022-09-27T12:26:42.153Z,46.47
2022-09-27T12:32:18.963Z,34.92
2022-09-27T12:37:26.398Z,28.17
2022-09-27T12:42:49.267Z,26.90
2022-09-27T12:48:34.367Z,43.92
2022-09-27T12:54:24.346Z,115.07
2022-09-27T12:59:55.236Z,72.03
2022-09-27T13:05:31.518Z,86.78
2022-09-27T13:10:47.549Z,137.80
2022-09-27T13:16:02.766Z,117.55
2022-09-27T13:21:11.146Z,73.18
2022-09-27T13:26:43.827Z,49.25
2022-09-27T13:31:58.996Z,111.05
2022-09-27T13:37:36.995Z,53.53
2022-09-27T13:43:06.762Z,103.00
2022-09-27T13:48:16.503Z,79.38
2022-09-27T13:53:39.044Z,67.07
2022-09-27T13:58:58.373Z,34.38
2022-09-27T14:04:46.523Z,179.68
2022-09-27T14:09:53.301Z,44.15
2022-09-27T14:15:00.161Z,91.03
2022-09-27T14:20:03.817Z,74.30
2022-09-27T14:25:17.797Z,108.25
2022-09-27T14:30:28.018Z,44.37
2022-09-27T14:36:08.171Z,37.20
2022-09-27T14:41:12.809Z,38.38
2022-09-27T14:46:32.052Z,50.10
2022-09-27T14:51:34.647Z,47.83
2022-09-27T14:56:38.162Z,43.45
2022-09-27T15:01:42.874Z,37.08
2022-09-27T15:06:45.842Z,44.35
2022-09-27T15:11:52.947Z,44.70
2022-09-27T15:16:57.067Z,31.73
2022-09-27T15:22:23.011Z,60.47
2022-09-27T15:27:26.041Z,63.80
2022-09-27T15:32:29.342Z,50.25
2022-09-27T15:37:37.964Z,49.75
2022-09-27T15:42:59.671Z,44.10
2022-09-27T15:48:21.506Z,39.00
2022-09-27T15:53:35.817Z,38.97
2022-09-27T15:58:38.165Z,39.83
2022-09-27T16:03:41.013Z,47.45
2022-09-27T16:08:44.479Z,47.35
2022-09-27T16:13:47.002Z,38.80
2022-09-27T16:18:49.989Z,41.45
2022-09-27T16:23:52.367Z,35.30
2022-09-27T16:28:54.946Z,33.70
2022-09-27T16:33:58.294Z,53.08
2022-09-27T16:39:00.713Z,36.35
2022-09-27T16:44:11.048Z,32.50
2022-09-27T16:49:32.194Z,32.42
2022-09-27T16:54:34.562Z,31.98
2022-09-27T16:59:37.127Z,39.60
2022-09-27T17:04:39.446Z,35.90
2022-09-27T17:09:43.028Z,32.05
2022-09-27T17:14:45.380Z,32.83
2022-09-27T17:19:48.631Z,34.17
2022-09-27T17:24:51.395Z,30.58
2022-09-27T17:29:54.481Z,28.27
2022-09-27T17:34:57.420Z,30.73
2022-09-27T17:39:59.762Z,36.08
2022-09-27T17:45:02.106Z,30.52
2022-09-27T17:50:23.284Z,33.38
2022-09-27T17:55:27.116Z,32.60
2022-09-27T18:00:29.989Z,35.47
2022-09-27T18:05:32.404Z,34.08
2022-09-27T18:10:35.625Z,38.60
2022-09-27T18:15:38.076Z,33.50
2022-09-27T18:20:40.479Z,42.53
2022-09-27T18:25:43.231Z,32.13
2022-09-27T18:36:05.885Z,41.90
2022-09-27T18:41:17.457Z,36.47
2022-09-27T18:46:37.257Z,34.15
2022-09-27T18:51:44.879Z,29.77
2022-09-27T18:56:49.265Z,30.13
2022-09-27T19:01:51.980Z,29.23
2022-09-27T19:06:55.722Z,26.13
2022-09-27T19:11:58.101Z,30.52
2022-09-27T19:17:00.478Z,29.95
2022-09-27T19:22:02.908Z,31.38
2022-09-27T19:27:05.321Z,30.80
2022-09-27T19:32:07.779Z,34.28
2022-09-27T19:37:10.150Z,31.85
2022-09-27T19:42:12.538Z,37.13
2022-09-27T19:47:15.026Z,24.13
2022-09-27T19:52:17.393Z,10.60
2022-09-27T19:57:19.964Z,4.82
2022-09-27T20:02:22.353Z,5.72
2022-09-27T20:07:25.011Z,2.45
2022-09-27T20:12:27.639Z,4.38
2022-09-27T20:17:33.974Z,6.88
2022-09-27T20:22:36.314Z,9.73
2022-09-27T20:27:39.891Z,10.23
2022-09-27T20:33:02.168Z,8.50
2022-09-27T20:38:05.517Z,13.27
2022-09-27T20:43:07.830Z,11.23
2022-09-27T20:48:10.228Z,11.15
2022-09-27T20:53:13.107Z,10.57
2022-09-27T20:58:15.526Z,9.98
2022-09-27T21:03:21.751Z,10.10
2022-09-27T21:08:26.162Z,13.43
2022-09-27T21:13:28.711Z,10.30
2022-09-27T21:18:31.365Z,10.23
2022-09-27T21:23:35.736Z,10.35
2022-09-27T21:28:42.906Z,11.75
2022-09-27T21:33:48.942Z,13.23
2022-09-27T21:38:51.770Z,8.93
2022-09-27T21:43:54.702Z,9.90
2022-09-27T21:48:58.851Z,7.38
2022-09-27T21:54:02.976Z,7.35
2022-09-27T21:59:06.381Z,6.95
2022-09-27T22:04:08.770Z,9.35
2022-09-27T22:09:17.706Z,14.75
2022-09-27T22:14:20.404Z,6.68
2022-09-27T22:19:23.571Z,5.90
2022-09-27T22:24:25.986Z,12.68
2022-09-27T22:29:28.500Z,5.03
2022-09-27T22:34:31.588Z,4.50
2022-09-27T22:39:34.109Z,5.05
2022-09-27T22:44:37.569Z,6.35
2022-09-27T22:49:39.959Z,3.38
2022-09-27T22:54:42.337Z,3.60
2022-09-27T22:59:44.731Z,4.00
2022-09-27T23:04:48.738Z,3.88
2022-09-27T23:09:51.338Z,4.18
2022-09-27T23:14:53.691Z,4.47
2022-09-27T23:19:56.065Z,6.75
2022-09-27T23:24:58.599Z,4.60
2022-09-27T23:30:00.944Z,4.15
2022-09-27T23:35:03.535Z,4.53
2022-09-27T23:40:06.662Z,3.45
2022-09-27T23:45:09.357Z,4.25
2022-09-27T23:50:11.747Z,6.45
2022-09-27T23:55:14.157Z,5.10
